createdAt,value
2022-08-17T00:00:01.855Z,95060.1
2022-08-17T00:03:17.868Z,95058.8
2022-08-17T00:04:20.074Z,95058.7
2022-08-17T00:05:22.545Z,95057.2
2022-08-17T00:06:24.470Z,95057.8
2022-08-17T00:07:26.669Z,95055.4
2022-08-17T00:08:28.874Z,95057.3
2022-08-17T00:09:31.346Z,95054.4
2022-08-17T00:10:33.772Z,95050.2
2022-08-17T00:11:36.259Z,95049.8
2022-08-17T00:13:43.730Z,95050
2022-08-17T00:14:45.976Z,95048.6
2022-08-17T00:15:48.464Z,95048.2
2022-08-17T00:17:55.659Z,95053.6
2022-08-17T00:20:03.131Z,95048
2022-08-17T00:23:15.301Z,95046.7
2022-08-17T00:24:17.493Z,95048.6
2022-08-17T00:25:19.978Z,95040.2
2022-08-17T00:27:27.165Z,95043.9
2022-08-17T00:29:34.633Z,95042.6
2022-08-17T00:31:41.836Z,95038.4
2022-08-17T00:33:49.020Z,95036.6
2022-08-17T00:34:51.506Z,95036.6
2022-08-17T00:35:53.988Z,95037.9
2022-08-17T00:36:56.538Z,95038.1
2022-08-17T00:37:58.747Z,95038.2
2022-08-17T00:39:00.701Z,95036.9
2022-08-17T00:40:03.446Z,95035.9
2022-08-17T00:41:05.518Z,95039
2022-08-17T00:42:07.435Z,95031.1
2022-08-17T00:43:11.572Z,95033.8
2022-08-17T00:44:13.820Z,95038.1
2022-08-17T00:45:16.035Z,95034
2022-08-17T00:46:18.235Z,95035.8
2022-08-17T00:47:20.154Z,95031.3
2022-08-17T00:49:27.628Z,95026.4
2022-08-17T00:50:29.829Z,95028.1
2022-08-17T00:51:31.757Z,95029.1
2022-08-17T00:52:34.235Z,95026.8
2022-08-17T00:53:36.726Z,95026.7
2022-08-17T00:55:43.926Z,95026
2022-08-17T00:56:46.122Z,95026.9
2022-08-17T00:58:54.112Z,95021.8
2022-08-17T01:01:01.782Z,95024.2
2022-08-17T01:02:04.144Z,95018
2022-08-17T01:03:06.340Z,95024
2022-08-17T01:04:07.968Z,95020.4
2022-08-17T01:05:10.475Z,95019.4
2022-08-17T01:06:13.231Z,95024
2022-08-17T01:07:16.163Z,95015.7
2022-08-17T01:08:18.173Z,95021.6
2022-08-17T01:09:20.642Z,95018.2
2022-08-17T01:11:27.555Z,95013.4
2022-08-17T01:12:29.484Z,95012.2
2022-08-17T01:13:39.706Z,95014.1
2022-08-17T01:14:39.995Z,95016.5
2022-08-17T01:16:47.618Z,95023.4
2022-08-17T01:17:50.101Z,95025
2022-08-17T01:18:52.298Z,95026.8
2022-08-17T01:19:54.504Z,95027.6
2022-08-17T01:20:56.440Z,95022.9
2022-08-17T01:22:00.676Z,95022.3
2022-08-17T01:23:02.856Z,95024.2
2022-08-17T01:24:05.089Z,95019.2
2022-08-17T01:25:07.558Z,95017.2
2022-08-17T01:26:09.761Z,95019.3
2022-08-17T01:27:12.062Z,95017.4
2022-08-17T01:29:19.534Z,95020.1
2022-08-17T01:31:27.072Z,95026.4
2022-08-17T01:32:33.147Z,95028.2
2022-08-17T01:33:34.580Z,95027.1
2022-08-17T01:35:41.479Z,95027.7
2022-08-17T01:36:43.424Z,95024.1
2022-08-17T01:37:45.638Z,95023.6
2022-08-17T01:38:48.108Z,95019.7
2022-08-17T01:39:50.657Z,95018.2
2022-08-17T01:41:58.215Z,95021
2022-08-17T01:43:00.704Z,95016
2022-08-17T01:44:02.936Z,95015.9
2022-08-17T01:45:04.869Z,95008.5
2022-08-17T01:46:07.078Z,95010.5
2022-08-17T01:47:09.281Z,95012.9
2022-08-17T01:48:11.177Z,95009.3
2022-08-17T01:49:13.669Z,95009.5
2022-08-17T01:50:15.596Z,95015.3
2022-08-17T01:51:17.804Z,95008
2022-08-17T01:52:19.716Z,95008.6
2022-08-17T01:53:21.646Z,95005.9
2022-08-17T01:54:24.115Z,95008
2022-08-17T01:56:31.588Z,95015.5
2022-08-17T01:57:33.523Z,95011.6
2022-08-17T01:58:35.444Z,95015.5
2022-08-17T01:59:37.665Z,95014.9
2022-08-17T02:01:45.158Z,95013.8
2022-08-17T02:02:47.672Z,95015.8
2022-08-17T02:04:54.591Z,95024.5
2022-08-17T02:05:56.801Z,95021.5
2022-08-17T02:07:00.753Z,95020.7
2022-08-17T02:11:20.985Z,95017.3
2022-08-17T02:13:28.185Z,95019.4
2022-08-17T02:14:30.373Z,95019.9
2022-08-17T02:15:32.594Z,95022.6
2022-08-17T02:17:39.802Z,95017
2022-08-17T02:18:42.284Z,95017.6
2022-08-17T02:19:44.194Z,95015.3
2022-08-17T02:20:46.415Z,95018.8
2022-08-17T02:21:48.619Z,95015.7
2022-08-17T02:22:51.803Z,95011.3
2022-08-17T02:23:54.426Z,95014.2
2022-08-17T02:26:01.638Z,95006.9
2022-08-17T02:27:03.831Z,95007.5
2022-08-17T02:28:06.011Z,95004
2022-08-17T02:29:08.215Z,94999.9
2022-08-17T02:31:15.158Z,94995.5
2022-08-17T02:33:22.481Z,94998.2
2022-08-17T02:34:24.121Z,94996.7
2022-08-17T02:35:26.032Z,94993.3
2022-08-17T02:36:29.110Z,94998.1
2022-08-17T02:37:31.593Z,95000.6
2022-08-17T02:38:33.788Z,94999.4
2022-08-17T02:39:36.181Z,94991.1
2022-08-17T02:40:38.260Z,94991.7
2022-08-17T02:41:39.888Z,94992.9
2022-08-17T02:42:41.817Z,94996.4
2022-08-17T02:43:44.160Z,94992.8
2022-08-17T02:44:46.360Z,94986.6
2022-08-17T02:45:48.552Z,94986
2022-08-17T02:46:52.477Z,94982.5
2022-08-17T02:47:54.671Z,94988.4
2022-08-17T02:48:56.882Z,94988.8
2022-08-17T02:49:59.086Z,94990.8
2022-08-17T02:51:01.601Z,94985.3
2022-08-17T02:52:05.306Z,94983.4
2022-08-17T02:53:08.778Z,94986.7
2022-08-17T02:55:16.285Z,94977.3
2022-08-17T02:56:18.771Z,94973.7
2022-08-17T02:57:21.236Z,94967.9
2022-08-17T02:59:28.704Z,94969.2
2022-08-17T03:00:30.863Z,94967.2
2022-08-17T03:01:33.326Z,94960.8
2022-08-17T03:02:35.596Z,94956
2022-08-17T03:03:37.791Z,94956.2
2022-08-17T03:04:39.717Z,94955.9
2022-08-17T03:05:42.184Z,94956.9
2022-08-17T03:06:44.391Z,94961.1
2022-08-17T03:07:46.916Z,94956.6
2022-08-17T03:08:48.884Z,94964
2022-08-17T03:09:51.101Z,94963.9
2022-08-17T03:10:52.788Z,94962.7
2022-08-17T03:12:59.710Z,94965.3
2022-08-17T03:14:02.207Z,94966.2
2022-08-17T03:15:04.440Z,94964.5
2022-08-17T03:16:06.646Z,94965.8
2022-08-17T03:17:08.559Z,94967.1
2022-08-17T03:19:15.756Z,94961.7
2022-08-17T03:20:18.229Z,94962.5
2022-08-17T03:21:20.792Z,94966.1
2022-08-17T03:23:30.539Z,94961.4
2022-08-17T03:24:33.058Z,94963.3
2022-08-17T03:25:35.640Z,94968.3
2022-08-17T03:26:37.887Z,94965.2
2022-08-17T03:28:45.070Z,94970.2
2022-08-17T03:29:47.264Z,94975
2022-08-17T03:30:49.487Z,94974.9
2022-08-17T03:31:51.685Z,94978.7
2022-08-17T03:32:54.499Z,94977.4
2022-08-17T03:33:57.029Z,94983.8
2022-08-17T03:34:58.968Z,94985.9
2022-08-17T03:36:01.181Z,94984.8
2022-08-17T03:37:03.097Z,94988.3
2022-08-17T03:38:05.305Z,94984.5
2022-08-17T03:39:07.504Z,94983.2
2022-08-17T03:40:09.716Z,94988.9
2022-08-17T03:41:12.298Z,94987.3
2022-08-17T03:43:19.513Z,94985.9
2022-08-17T03:44:21.435Z,94987.6
2022-08-17T03:45:23.897Z,94982.9
2022-08-17T03:47:30.530Z,94988.9
2022-08-17T03:48:32.444Z,94993.7
2022-08-17T03:49:34.657Z,94991.5
2022-08-17T03:50:36.590Z,94996.1
2022-08-17T03:51:39.067Z,94996.1
2022-08-17T03:52:41.568Z,94989.5
2022-08-17T03:53:43.505Z,94988.3
2022-08-17T03:54:45.742Z,94991.7
2022-08-17T03:55:47.956Z,94987.1
2022-08-17T03:56:50.163Z,94991.7
2022-08-17T03:57:54.402Z,94995
2022-08-17T03:58:56.634Z,94993.8
2022-08-17T03:59:59.114Z,94992.8
2022-08-17T04:01:01.568Z,94993.2
2022-08-17T04:02:03.591Z,94993.2
2022-08-17T04:04:12.859Z,94995.5
2022-08-17T04:05:15.332Z,94996.9
2022-08-17T04:06:17.523Z,95000.8
2022-08-17T04:07:19.716Z,94999.1
2022-08-17T04:08:21.622Z,94998.5
2022-08-17T04:09:24.094Z,95005.8
2022-08-17T04:11:33.728Z,95004
2022-08-17T04:12:35.952Z,94998.9
2022-08-17T04:13:38.147Z,95001.5
2022-08-17T04:15:45.627Z,95000.9
2022-08-17T04:16:47.856Z,94995.7
2022-08-17T04:17:49.771Z,94996.4
2022-08-17T04:18:51.413Z,94998.4
2022-08-17T04:19:53.460Z,94992.3
2022-08-17T04:22:00.452Z,94990.6
2022-08-17T04:23:02.671Z,94988.2
2022-08-17T04:24:05.744Z,94984.7
2022-08-17T04:25:07.385Z,94978.3
2022-08-17T04:26:09.582Z,94974.8
2022-08-17T04:27:16.047Z,94977.5
2022-08-17T04:28:17.705Z,94978.6
2022-08-17T04:29:19.627Z,94977.7
2022-08-17T04:30:21.530Z,94982
2022-08-17T04:31:23.732Z,94985.4
2022-08-17T04:33:31.216Z,94985.4
2022-08-17T04:34:33.412Z,94982.9
2022-08-17T04:35:35.034Z,94986.3
2022-08-17T04:36:36.679Z,94986.6
2022-08-17T04:37:39.146Z,94981.3
2022-08-17T04:38:41.344Z,94977.2
2022-08-17T04:39:43.715Z,94978.3
2022-08-17T04:40:45.940Z,94980.2
2022-08-17T04:41:48.412Z,94980.3
2022-08-17T04:43:55.951Z,94977.1
2022-08-17T04:44:58.661Z,94980.9
2022-08-17T04:46:00.308Z,94980
2022-08-17T04:47:02.236Z,94976.9
2022-08-17T04:48:04.427Z,94975.6
2022-08-17T04:49:06.648Z,94974.8
2022-08-17T04:50:09.123Z,94975.8
2022-08-17T04:51:12.052Z,94976.4
2022-08-17T04:53:18.952Z,94975.6
2022-08-17T04:54:21.426Z,94976.5
2022-08-17T04:55:23.355Z,94976.5
2022-08-17T04:56:25.301Z,94982
2022-08-17T04:57:26.991Z,94979.9
2022-08-17T04:58:29.478Z,94985.9
2022-08-17T04:59:31.961Z,94981.1
2022-08-17T05:00:34.648Z,94982.4
2022-08-17T05:01:36.769Z,94979.5
2022-08-17T05:03:44.109Z,94984.4
2022-08-17T05:04:46.793Z,94985.3
2022-08-17T05:05:50.058Z,94990.4
2022-08-17T05:06:52.310Z,94989
2022-08-17T05:07:54.253Z,94991.5
2022-08-17T05:08:56.733Z,94993
2022-08-17T05:09:58.655Z,94995.4
2022-08-17T05:11:01.139Z,94994.8
2022-08-17T05:12:03.352Z,94995.8
2022-08-17T05:13:05.823Z,94999.6
2022-08-17T05:14:08.299Z,94995.1
2022-08-17T05:15:10.515Z,94997.3
2022-08-17T05:16:13.018Z,94994.3
2022-08-17T05:17:15.502Z,94994.7
2022-08-17T05:18:17.431Z,94998.4
2022-08-17T05:19:19.653Z,94999.6
2022-08-17T05:20:21.849Z,94996.7
2022-08-17T05:21:23.514Z,94999.2
2022-08-17T05:22:25.408Z,94997
2022-08-17T05:25:40.575Z,95006.8
2022-08-17T05:26:44.347Z,95009.5
2022-08-17T05:27:49.143Z,95012.9
2022-08-17T05:28:51.848Z,95011.7
2022-08-17T05:29:54.039Z,95012.1
2022-08-17T05:30:56.242Z,95013.7
2022-08-17T05:31:58.731Z,95014.5
2022-08-17T05:33:00.914Z,95015.3
2022-08-17T05:34:02.847Z,95017.6
2022-08-17T05:35:04.775Z,95017.6
2022-08-17T05:36:06.675Z,95015
2022-08-17T05:37:08.899Z,95018.3
2022-08-17T05:38:11.090Z,95013.3
2022-08-17T05:40:18.299Z,95009.1
2022-08-17T05:41:20.494Z,95007.5
2022-08-17T05:42:22.983Z,95000
2022-08-17T05:43:25.199Z,95002.2
2022-08-17T05:44:27.403Z,94999.6
2022-08-17T05:46:34.873Z,95003.8
2022-08-17T05:47:36.791Z,95005.6
2022-08-17T05:48:41.217Z,95007.3
2022-08-17T05:49:43.411Z,95005.5
2022-08-17T05:50:51.536Z,95002.9
2022-08-17T05:51:53.462Z,95003.5
2022-08-17T05:52:55.656Z,95003.1
2022-08-17T05:53:58.145Z,95001.5
2022-08-17T05:55:00.043Z,95003.6
2022-08-17T05:56:01.949Z,95006.5
2022-08-17T05:57:03.847Z,95009.4
2022-08-17T05:58:05.816Z,95009.8
2022-08-17T05:59:07.764Z,95011.3
2022-08-17T06:00:11.464Z,95007.2
2022-08-17T06:01:18.383Z,95008.6
2022-08-17T06:02:20.774Z,95011.7
2022-08-17T06:03:23.252Z,95013.3
2022-08-17T06:04:25.181Z,95008.2
2022-08-17T06:05:27.654Z,95011.7
2022-08-17T06:07:34.567Z,95013.9
2022-08-17T06:08:37.106Z,95016.5
2022-08-17T06:09:39.039Z,95020.3
2022-08-17T06:10:41.527Z,95019.2
2022-08-17T06:11:43.428Z,95019.3
2022-08-17T06:12:45.345Z,95021.2
2022-08-17T06:13:47.310Z,95024.7
2022-08-17T06:14:49.250Z,95026.4
2022-08-17T06:15:51.480Z,95028.1
2022-08-17T06:16:53.959Z,95027.7
2022-08-17T06:17:56.158Z,95034.2
2022-08-17T06:18:58.652Z,95032.7
2022-08-17T06:20:00.865Z,95025.1
2022-08-17T06:21:03.083Z,95024.7
2022-08-17T06:22:05.293Z,95021.6
2022-08-17T06:23:07.503Z,95022.9
2022-08-17T06:24:09.986Z,95022.8
2022-08-17T06:25:11.907Z,95024
2022-08-17T06:26:14.375Z,95027.2
2022-08-17T06:27:16.867Z,95027
2022-08-17T06:28:19.067Z,95031.9
2022-08-17T06:29:21.272Z,95034.2
2022-08-17T06:30:23.208Z,95035.7
2022-08-17T06:31:25.694Z,95037.2
2022-08-17T06:32:28.175Z,95036
2022-08-17T06:33:30.661Z,95034.2
2022-08-17T06:34:36.158Z,95038.2
2022-08-17T06:36:43.095Z,95040.6
2022-08-17T06:37:45.296Z,95041.3
2022-08-17T06:38:47.498Z,95047
2022-08-17T06:39:49.698Z,95047.2
2022-08-17T06:40:52.016Z,95052.6
2022-08-17T06:41:54.523Z,95051.4
2022-08-17T06:44:01.426Z,95053.3
2022-08-17T06:45:03.624Z,95052
2022-08-17T06:46:05.558Z,95056.9
2022-08-17T06:47:07.767Z,95053.3
2022-08-17T06:48:09.393Z,95050
2022-08-17T06:49:11.596Z,95054.6
2022-08-17T06:50:14.077Z,95053.5
2022-08-17T06:51:16.628Z,95060.1
2022-08-17T06:53:23.544Z,95059.8
2022-08-17T06:54:25.205Z,95059.2
2022-08-17T06:55:27.714Z,95060.2
2022-08-17T06:57:34.375Z,95056.1
2022-08-17T07:00:49.082Z,95059.6
2022-08-17T07:01:51.134Z,95059
2022-08-17T07:03:58.310Z,95066.4
2022-08-17T07:05:05.281Z,95073.1
2022-08-17T07:06:07.218Z,95076
2022-08-17T07:07:09.685Z,95080.4
2022-08-17T07:08:11.897Z,95079.4
2022-08-17T07:09:14.098Z,95084.4
2022-08-17T07:10:16.604Z,95083.8
2022-08-17T07:11:19.075Z,95087.7
2022-08-17T07:12:21.314Z,95090.5
2022-08-17T07:13:23.798Z,95088.5
2022-08-17T07:14:26.015Z,95087.2
2022-08-17T07:15:27.926Z,95082
2022-08-17T07:16:30.406Z,95082
2022-08-17T07:18:38.639Z,95079.3
2022-08-17T07:19:41.131Z,95079.7
2022-08-17T07:20:43.058Z,95085.7
2022-08-17T07:21:45.541Z,95083.6
2022-08-17T07:23:52.736Z,95085.2
2022-08-17T07:24:55.223Z,95088
2022-08-17T07:25:57.423Z,95091.8
2022-08-17T07:26:59.903Z,95086.8
2022-08-17T07:28:01.872Z,95090.7
2022-08-17T07:29:08.392Z,95093.1
2022-08-17T07:30:12.619Z,95091.5
2022-08-17T07:31:14.569Z,95096.3
2022-08-17T07:32:16.519Z,95097
2022-08-17T07:33:18.189Z,95105
2022-08-17T07:34:19.846Z,95103.5
2022-08-17T07:35:22.511Z,95103.7
2022-08-17T07:37:29.713Z,95105.1
2022-08-17T07:38:32.206Z,95108.6
2022-08-17T07:40:40.746Z,95110.8
2022-08-17T07:42:50.333Z,95113
2022-08-17T07:43:52.808Z,95107.3
2022-08-17T07:44:55.009Z,95111.3
2022-08-17T07:45:56.647Z,95116
2022-08-17T07:46:58.575Z,95121.3
2022-08-17T07:48:02.464Z,95116.4
2022-08-17T07:49:04.680Z,95117.9
2022-08-17T07:50:07.160Z,95116.3
2022-08-17T07:51:09.406Z,95110.1
2022-08-17T07:53:16.899Z,95106.2
2022-08-17T07:54:18.806Z,95099.5
2022-08-17T07:55:20.772Z,95100.5
2022-08-17T07:56:22.980Z,95102.2
2022-08-17T07:57:31.355Z,95112.2
2022-08-17T07:58:33.297Z,95105.6
2022-08-17T07:59:36.610Z,95110
2022-08-17T08:00:39.406Z,95108.2
2022-08-17T08:01:44.032Z,95109.7
2022-08-17T08:02:48.354Z,95106.9
2022-08-17T08:06:00.836Z,95110.4
2022-08-17T08:07:03.315Z,95112.6
2022-08-17T08:08:05.802Z,95107.1
2022-08-17T08:09:08.318Z,95107
2022-08-17T08:10:10.241Z,95105.6
2022-08-17T08:11:12.725Z,95101.5
2022-08-17T08:13:19.648Z,95099
2022-08-17T08:15:27.628Z,95097.9
2022-08-17T08:16:30.277Z,95092.9
2022-08-17T08:17:32.208Z,95098.8
2022-08-17T08:19:39.714Z,95103.7
2022-08-17T08:21:47.193Z,95108.7
2022-08-17T08:22:49.412Z,95104.7
2022-08-17T08:23:51.335Z,95100.1
2022-08-17T08:24:53.545Z,95099.3
2022-08-17T08:25:56.908Z,95096.9
2022-08-17T08:26:59.287Z,95098.5
2022-08-17T08:28:01.491Z,95096.1
2022-08-17T08:29:03.391Z,95095.9
2022-08-17T08:30:05.606Z,95092.1
2022-08-17T08:31:07.821Z,95095.5
2022-08-17T08:32:10.026Z,95095.7
2022-08-17T08:33:11.417Z,95096.6
2022-08-17T08:35:18.068Z,95095.2
2022-08-17T08:38:31.233Z,95094.2
2022-08-17T08:39:33.528Z,95091.6
2022-08-17T08:40:35.281Z,95091.4
2022-08-17T08:41:38.221Z,95085.9
2022-08-17T08:42:45.044Z,95085.5
2022-08-17T08:45:56.986Z,95083.4
2022-08-17T08:46:58.893Z,95081.1
2022-08-17T08:51:17.688Z,95084.9
2022-08-17T08:52:20.445Z,95082.7
2022-08-17T08:53:22.660Z,95085.2
2022-08-17T08:55:29.613Z,95079.7
2022-08-17T08:56:31.831Z,95078.6
2022-08-17T09:00:48.468Z,95081.4
2022-08-17T09:01:51.246Z,95079
2022-08-17T09:02:53.021Z,95078.8
2022-08-17T09:07:11.528Z,95081.6
2022-08-17T09:08:14.011Z,95081
2022-08-17T09:09:16.499Z,95081.3
2022-08-17T09:10:18.686Z,95085.6
2022-08-17T09:11:21.223Z,95089.5
2022-08-17T09:12:22.891Z,95093.4
2022-08-17T09:13:24.874Z,95093.6
2022-08-17T09:15:32.376Z,95098
2022-08-17T09:16:34.621Z,95094.6
2022-08-17T09:17:37.135Z,95093.3
2022-08-17T09:19:44.351Z,95096.2
2022-08-17T09:21:51.596Z,95086.2
2022-08-17T09:22:53.871Z,95082.3
2022-08-17T09:23:56.071Z,95079.6
2022-08-17T09:24:58.511Z,95070.6
2022-08-17T09:26:01.008Z,95064.4
2022-08-17T09:27:03.532Z,95059.8
2022-08-17T09:28:05.464Z,95063.9
2022-08-17T09:29:07.417Z,95068.1
2022-08-17T09:30:09.344Z,95071.7
2022-08-17T09:31:11.545Z,95073.8
2022-08-17T09:32:14.035Z,95083.2
2022-08-17T09:33:15.970Z,95085.8
2022-08-17T09:34:18.180Z,95082.6
2022-08-17T09:35:20.136Z,95082.2
2022-08-17T09:36:22.314Z,95086.5
2022-08-17T09:37:24.277Z,95083.5
2022-08-17T09:39:31.498Z,95081
2022-08-17T09:40:34.167Z,95086.9
2022-08-17T09:41:36.376Z,95086.2
2022-08-17T09:42:38.597Z,95084.2
2022-08-17T09:43:40.793Z,95089.4
2022-08-17T09:44:43.294Z,95086.6
2022-08-17T09:45:45.762Z,95089.5
2022-08-17T09:46:47.971Z,95088.8
2022-08-17T09:47:51.467Z,95085.9
2022-08-17T09:48:54.407Z,95086.4
2022-08-17T09:49:56.344Z,95083.9
2022-08-17T09:52:03.555Z,95081.1
2022-08-17T09:53:05.482Z,95082.5
2022-08-17T09:55:12.693Z,95082.7
2022-08-17T09:56:14.911Z,95082.1
2022-08-17T10:00:32.328Z,95080.6
2022-08-17T10:01:34.548Z,95084.4
2022-08-17T10:02:36.927Z,95080.1
2022-08-17T10:03:39.160Z,95081.9
2022-08-17T10:04:40.815Z,95081.1
2022-08-17T10:05:43.035Z,95081.6
2022-08-17T10:06:44.939Z,95080.5
2022-08-17T10:07:47.462Z,95084
2022-08-17T10:08:49.731Z,95085
2022-08-17T10:09:51.939Z,95087.1
2022-08-17T10:11:59.171Z,95081.2
2022-08-17T10:15:12.671Z,95083.2
2022-08-17T10:16:21.089Z,95085.1
2022-08-17T10:17:23.589Z,95091.7
2022-08-17T10:19:30.539Z,95089.1
2022-08-17T10:20:33.026Z,95087.7
2022-08-17T10:21:34.954Z,95084.6
2022-08-17T10:22:40.673Z,95082.1
2022-08-17T10:23:43.751Z,95082.3
2022-08-17T10:26:58.329Z,95082.4
2022-08-17T10:28:00.817Z,95083
2022-08-17T10:29:02.755Z,95076.7
2022-08-17T10:30:05.254Z,95077.7
2022-08-17T10:32:12.733Z,95078.6
2022-08-17T10:33:15.507Z,95078.2
2022-08-17T10:34:17.707Z,95080.5
2022-08-17T10:35:19.907Z,95081.2
2022-08-17T10:36:21.836Z,95084.5
2022-08-17T10:37:24.050Z,95086
2022-08-17T10:38:25.968Z,95082.4
2022-08-17T10:39:28.319Z,95082
2022-08-17T10:40:30.415Z,95079.8
2022-08-17T10:42:38.222Z,95081.5
2022-08-17T10:43:41.093Z,95082.2
2022-08-17T10:44:48.431Z,95089.9
2022-08-17T10:46:55.907Z,95085.4
2022-08-17T10:49:03.110Z,95084.6
2022-08-17T10:50:05.030Z,95086.3
2022-08-17T10:51:07.245Z,95085.1
2022-08-17T10:52:09.191Z,95080.9
2022-08-17T10:53:11.100Z,95081
2022-08-17T10:54:13.599Z,95088.6
2022-08-17T10:55:16.069Z,95076.8
2022-08-17T10:56:18.556Z,95082.7
2022-08-17T10:57:21.066Z,95077.5
2022-08-17T10:58:23.413Z,95073.1
2022-08-17T10:59:25.590Z,95077.3
2022-08-17T11:00:29.255Z,95077
2022-08-17T11:01:32.105Z,95079.7
2022-08-17T11:02:34.492Z,95081.4
2022-08-17T11:03:36.417Z,95082.8
2022-08-17T11:04:38.911Z,95083.7
2022-08-17T11:06:46.470Z,95086.4
2022-08-17T11:07:48.394Z,95087.1
2022-08-17T11:08:50.042Z,95088.2
2022-08-17T11:09:51.980Z,95086.9
2022-08-17T11:10:54.182Z,95089.7
2022-08-17T11:11:56.668Z,95091.1
2022-08-17T11:12:58.863Z,95092.7
2022-08-17T11:14:01.068Z,95090.6
2022-08-17T11:15:03.221Z,95091
2022-08-17T11:17:13.151Z,95087.3
2022-08-17T11:18:16.670Z,95083.7
2022-08-17T11:19:19.163Z,95080.5
2022-08-17T11:20:20.810Z,95084
2022-08-17T11:21:23.308Z,95084.8
2022-08-17T11:23:33.580Z,95081.3
2022-08-17T11:24:35.770Z,95077.8
2022-08-17T11:25:38.241Z,95076.6
2022-08-17T11:26:40.418Z,95082.3
2022-08-17T11:27:42.319Z,95077.8
2022-08-17T11:28:44.247Z,95082.3
2022-08-17T11:30:51.737Z,95077.3
2022-08-17T11:31:56.045Z,95085.5
2022-08-17T11:32:58.813Z,95082.5
2022-08-17T11:34:01.310Z,95078.8
2022-08-17T11:35:03.806Z,95075.3
2022-08-17T11:36:06.012Z,95074.2
2022-08-17T11:37:07.932Z,95074
2022-08-17T11:39:15.691Z,95069.6
2022-08-17T11:40:18.636Z,95068.3
2022-08-17T11:41:21.013Z,95067.3
2022-08-17T11:42:22.996Z,95062.7
2022-08-17T11:43:27.151Z,95065.8
2022-08-17T11:44:29.341Z,95061.9
2022-08-17T11:45:33.900Z,95062.7
2022-08-17T11:46:35.837Z,95063.3
2022-08-17T11:47:38.036Z,95069.5
2022-08-17T11:48:39.977Z,95072.8
2022-08-17T11:49:42.200Z,95073.6
2022-08-17T11:50:44.113Z,95073.7
2022-08-17T11:51:46.603Z,95083.4
2022-08-17T11:52:48.812Z,95082.9
2022-08-17T11:56:02.291Z,95087.8
2022-08-17T11:57:03.659Z,95087.8
2022-08-17T11:58:05.588Z,95083.1
2022-08-17T11:59:07.227Z,95085.9
2022-08-17T12:00:09.758Z,95088.5
2022-08-17T12:02:16.687Z,95086
2022-08-17T12:03:19.179Z,95080.1
2022-08-17T12:04:21.941Z,95078.9
2022-08-17T12:05:24.540Z,95081.2
2022-08-17T12:07:31.756Z,95082.8
2022-08-17T12:08:33.956Z,95080.2
2022-08-17T12:09:36.435Z,95086.3
2022-08-17T12:10:38.381Z,95083.3
2022-08-17T12:12:47.073Z,95082.1
2022-08-17T12:13:49.559Z,95084
2022-08-17T12:15:57.945Z,95081.8
2022-08-17T12:16:59.879Z,95080.7
2022-08-17T12:18:02.083Z,95081.9
2022-08-17T12:19:04.573Z,95085.5
2022-08-17T12:20:06.502Z,95088.1
2022-08-17T12:21:08.797Z,95086.7
2022-08-17T12:22:10.877Z,95084.3
2022-08-17T12:23:13.100Z,95079.6
2022-08-17T12:24:14.480Z,95081
2022-08-17T12:25:16.388Z,95083.7
2022-08-17T12:26:18.314Z,95078.7
2022-08-17T12:28:25.550Z,95073.5
2022-08-17T12:30:33.038Z,95069
2022-08-17T12:31:35.246Z,95068.1
2022-08-17T12:32:37.440Z,95068.3
2022-08-17T12:33:39.643Z,95064.8
2022-08-17T12:34:41.977Z,95070.9
2022-08-17T12:35:44.525Z,95066.5
2022-08-17T12:36:46.449Z,95069.5
2022-08-17T12:37:48.178Z,95066.7
2022-08-17T12:38:50.515Z,95061.9
2022-08-17T12:39:52.937Z,95062.1
2022-08-17T12:43:05.527Z,95051.9
2022-08-17T12:44:08.018Z,95048.5
2022-08-17T12:45:09.696Z,95052.5
2022-08-17T12:48:21.056Z,95052
2022-08-17T12:49:23.002Z,95050.2
2022-08-17T12:51:30.553Z,95051.7
2022-08-17T12:52:32.789Z,95048.5
2022-08-17T12:53:35.285Z,95050.6
2022-08-17T12:54:36.939Z,95052.9
2022-08-17T12:55:39.185Z,95046.3
2022-08-17T12:56:41.430Z,95045.6
2022-08-17T12:57:43.448Z,95043.2
2022-08-17T12:58:45.507Z,95044.2
2022-08-17T12:59:47.714Z,95045
2022-08-17T13:00:50.939Z,95044.2
2022-08-17T13:01:53.624Z,95046.9
2022-08-17T13:02:56.013Z,95053.7
2022-08-17T13:03:58.205Z,95052.9
2022-08-17T13:05:00.420Z,95050.3
2022-08-17T13:06:02.611Z,95053.8
2022-08-17T13:07:05.096Z,95051.4
2022-08-17T13:08:07.017Z,95048.8
2022-08-17T13:09:09.504Z,95043.8
2022-08-17T13:10:11.995Z,95048.3
2022-08-17T13:11:13.943Z,95047.1
2022-08-17T13:12:16.149Z,95048.4
2022-08-17T13:13:19.732Z,95051.3
2022-08-17T13:14:21.927Z,95048.9
2022-08-17T13:15:24.148Z,95054.7
2022-08-17T13:16:25.503Z,95048.1
2022-08-17T13:17:27.125Z,95047.7
2022-08-17T13:18:29.339Z,95046.6
2022-08-17T13:20:36.549Z,95048.1
2022-08-17T13:21:38.769Z,95036.4
2022-08-17T13:22:42.069Z,95041.5
2022-08-17T13:24:50.930Z,95038.7
2022-08-17T13:25:52.895Z,95035.7
2022-08-17T13:26:55.367Z,95037.5
2022-08-17T13:27:57.575Z,95039.5
2022-08-17T13:28:59.240Z,95039.5
2022-08-17T13:30:01.167Z,95043.4
2022-08-17T13:31:03.827Z,95042.4
2022-08-17T13:34:19.367Z,95042.6
2022-08-17T13:36:31.373Z,95036.7
2022-08-17T13:37:33.045Z,95037.9
2022-08-17T13:38:34.981Z,95041.5
2022-08-17T13:39:37.767Z,95041.6
2022-08-17T13:40:40.381Z,95035.9
2022-08-17T13:41:42.297Z,95035.8
2022-08-17T13:43:49.554Z,95040.9
2022-08-17T13:44:51.766Z,95040.2
2022-08-17T13:45:53.982Z,95041.5
2022-08-17T13:46:59.224Z,95038.2
2022-08-17T13:48:01.150Z,95033.5
2022-08-17T13:49:02.818Z,95033
2022-08-17T13:50:04.748Z,95031.4
2022-08-17T13:51:06.686Z,95033.6
2022-08-17T13:52:08.610Z,95036.3
2022-08-17T13:53:12.379Z,95044.2
2022-08-17T13:54:14.590Z,95038
2022-08-17T13:55:16.805Z,95037.9
2022-08-17T13:57:23.732Z,95035
2022-08-17T13:58:25.941Z,95039.2
2022-08-17T14:00:33.164Z,95036.5
2022-08-17T14:01:35.506Z,95041.3
2022-08-17T14:02:37.863Z,95036.2
2022-08-17T14:04:44.239Z,95033
2022-08-17T14:05:46.165Z,95032.6
2022-08-17T14:07:53.440Z,95028.7
2022-08-17T14:08:55.635Z,95027.8
2022-08-17T14:09:57.858Z,95025.4
2022-08-17T14:11:00.341Z,95019
2022-08-17T14:12:02.276Z,95015.8
2022-08-17T14:13:04.826Z,95015.2
2022-08-17T14:14:06.469Z,95012.2
2022-08-17T14:15:08.683Z,95008.9
2022-08-17T14:16:10.609Z,95007.8
2022-08-17T14:17:12.808Z,95004
2022-08-17T14:18:15.303Z,94999.7
2022-08-17T14:19:17.808Z,95000.6
2022-08-17T14:20:20.035Z,95000
2022-08-17T14:21:22.233Z,94997.6
2022-08-17T14:22:24.711Z,94995.6
2022-08-17T14:23:27.193Z,94994.2
2022-08-17T14:24:29.401Z,94996.3
2022-08-17T14:25:31.629Z,94995.5
2022-08-17T14:26:33.813Z,94994.6
2022-08-17T14:29:46.295Z,94983.3
2022-08-17T14:30:48.237Z,94979.7
2022-08-17T14:32:55.450Z,94981.3
2022-08-17T14:33:57.669Z,94976.1
2022-08-17T14:35:00.143Z,94972.7
2022-08-17T14:36:02.625Z,94968.9
2022-08-17T14:37:04.549Z,94970.9
2022-08-17T14:38:06.736Z,94963.7
2022-08-17T14:39:09.210Z,94965.8
2022-08-17T14:40:15.841Z,94964.4
2022-08-17T14:42:23.481Z,94965.8
2022-08-17T14:43:25.958Z,94966.7
2022-08-17T14:44:28.148Z,94969.1
2022-08-17T14:46:35.065Z,94972.3
2022-08-17T14:47:37.276Z,94975.3
2022-08-17T14:48:39.499Z,94976.9
2022-08-17T14:49:42.320Z,94972.5
2022-08-17T14:50:44.800Z,94973.4
2022-08-17T14:51:46.986Z,94972
2022-08-17T14:52:49.455Z,94967.7
2022-08-17T14:53:51.943Z,94961.5
2022-08-17T14:54:54.440Z,94962
2022-08-17T14:55:56.363Z,94962.3
2022-08-17T14:58:03.569Z,94964.3
2022-08-17T14:59:05.578Z,94962.6
2022-08-17T15:00:07.508Z,94964.3
2022-08-17T15:02:14.183Z,94963.1
2022-08-17T15:03:16.392Z,94963.6
2022-08-17T15:04:18.599Z,94963.8
2022-08-17T15:05:20.820Z,94965.3
2022-08-17T15:06:23.053Z,94966.9
2022-08-17T15:08:30.270Z,94973.8
2022-08-17T15:10:37.810Z,94974.8
2022-08-17T15:11:40.330Z,94977.4
2022-08-17T15:12:42.242Z,94979.7
2022-08-17T15:14:49.730Z,94976.5
2022-08-17T15:15:52.212Z,94972.5